sensor_id;sensor_type;location;lat;lon;timestamp;P1;durP1;ratioP1;P2;durP2;ratioP2
40533;SDS011;26233;51.894;10.192;2023-05-23T00:01:47;6.22;;;5.72;;
40533;SDS011;26233;51.894;10.192;2023-05-23T00:04:14;6.07;;;5.68;;
40533;SDS011;26233;51.894;10.192;2023-05-23T00:06:42;6.43;;;5.93;;
40533;SDS011;26233;51.894;10.192;2023-05-23T00:09:13;5.82;;;5.43;;
40533;SDS011;26233;51.894;10.192;2023-05-23T00:11:40;6.65;;;6.00;;
40533;SDS011;26233;51.894;10.192;2023-05-23T00:14:09;7.00;;;6.40;;
40533;SDS011;26233;51.894;10.192;2023-05-23T00:16:38;6.30;;;5.80;;
40533;SDS011;26233;51.894;10.192;2023-05-23T00:19:07;6.72;;;6.22;;
40533;SDS011;26233;51.894;10.192;2023-05-23T00:21:35;7.07;;;6.38;;
40533;SDS011;26233;51.894;10.192;2023-05-23T00:24:02;7.20;;;6.50;;
40533;SDS011;26233;51.894;10.192;2023-05-23T00:26:31;6.97;;;6.45;;
40533;SDS011;26233;51.894;10.192;2023-05-23T00:28:58;7.75;;;7.15;;
40533;SDS011;26233;51.894;10.192;2023-05-23T00:31:28;7.78;;;7.07;;
40533;SDS011;26233;51.894;10.192;2023-05-23T00:33:55;8.25;;;7.65;;
40533;SDS011;26233;51.894;10.192;2023-05-23T00:36:22;7.57;;;7.00;;
40533;SDS011;26233;51.894;10.192;2023-05-23T00:38:49;8.85;;;8.15;;
40533;SDS011;26233;51.894;10.192;2023-05-23T00:41:17;8.30;;;7.60;;
40533;SDS011;26233;51.894;10.192;2023-05-23T00:43:47;7.88;;;7.28;;
40533;SDS011;26233;51.894;10.192;2023-05-23T00:46:14;8.30;;;7.63;;
40533;SDS011;26233;51.894;10.192;2023-05-23T00:48:41;8.23;;;7.43;;
40533;SDS011;26233;51.894;10.192;2023-05-23T00:51:09;7.78;;;7.18;;
40533;SDS011;26233;51.894;10.192;2023-05-23T00:53:36;7.82;;;7.22;;
40533;SDS011;26233;51.894;10.192;2023-05-23T00:56:03;7.57;;;6.97;;
40533;SDS011;26233;51.894;10.192;2023-05-23T00:58:30;7.07;;;6.47;;
40533;SDS011;26233;51.894;10.192;2023-05-23T01:01:00;7.82;;;7.10;;
40533;SDS011;26233;51.894;10.192;2023-05-23T01:03:27;7.53;;;6.93;;
40533;SDS011;26233;51.894;10.192;2023-05-23T01:05:54;7.47;;;6.88;;
40533;SDS011;26233;51.894;10.192;2023-05-23T01:08:21;8.07;;;7.38;;
40533;SDS011;26233;51.894;10.192;2023-05-23T01:10:48;7.82;;;7.20;;
40533;SDS011;26233;51.894;10.192;2023-05-23T01:13:19;8.57;;;7.88;;
40533;SDS011;26233;51.894;10.192;2023-05-23T01:15:57;8.38;;;7.72;;
40533;SDS011;26233;51.894;10.192;2023-05-23T01:18:32;8.68;;;7.95;;
40533;SDS011;26233;51.894;10.192;2023-05-23T01:21:05;8.45;;;7.80;;
40533;SDS011;26233;51.894;10.192;2023-05-23T01:23:45;9.00;;;8.30;;
40533;SDS011;26233;51.894;10.192;2023-05-23T01:26:37;8.68;;;7.95;;
40533;SDS011;26233;51.894;10.192;2023-05-23T01:29:25;9.13;;;8.23;;
40533;SDS011;26233;51.894;10.192;2023-05-23T01:31:57;9.18;;;8.40;;
40533;SDS011;26233;51.894;10.192;2023-05-23T01:34:25;9.38;;;8.65;;
40533;SDS011;26233;51.894;10.192;2023-05-23T01:36:53;8.75;;;8.05;;
40533;SDS011;26233;51.894;10.192;2023-05-23T01:39:20;9.40;;;8.63;;
40533;SDS011;26233;51.894;10.192;2023-05-23T01:41:48;8.55;;;7.85;;
40533;SDS011;26233;51.894;10.192;2023-05-23T01:44:19;9.65;;;8.85;;
40533;SDS011;26233;51.894;10.192;2023-05-23T01:46:48;9.65;;;8.85;;
40533;SDS011;26233;51.894;10.192;2023-05-23T01:49:15;10.48;;;9.57;;
40533;SDS011;26233;51.894;10.192;2023-05-23T01:51:44;10.30;;;9.30;;
40533;SDS011;26233;51.894;10.192;2023-05-23T01:54:11;9.93;;;9.13;;
40533;SDS011;26233;51.894;10.192;2023-05-23T01:56:41;10.68;;;9.70;;
40533;SDS011;26233;51.894;10.192;2023-05-23T01:59:08;10.93;;;9.90;;
40533;SDS011;26233;51.894;10.192;2023-05-23T02:01:35;10.88;;;9.93;;
40533;SDS011;26233;51.894;10.192;2023-05-23T02:04:06;10.75;;;9.85;;
40533;SDS011;26233;51.894;10.192;2023-05-23T02:06:33;10.77;;;9.88;;
40533;SDS011;26233;51.894;10.192;2023-05-23T02:09:00;10.80;;;9.98;;
40533;SDS011;26233;51.894;10.192;2023-05-23T02:11:28;10.73;;;9.90;;
40533;SDS011;26233;51.894;10.192;2023-05-23T02:13:55;9.55;;;8.82;;
40533;SDS011;26233;51.894;10.192;2023-05-23T02:16:22;10.40;;;9.60;;
40533;SDS011;26233;51.894;10.192;2023-05-23T02:18:50;10.13;;;9.23;;
40533;SDS011;26233;51.894;10.192;2023-05-23T02:21:21;10.00;;;9.20;;
40533;SDS011;26233;51.894;10.192;2023-05-23T02:23:48;10.30;;;9.32;;
40533;SDS011;26233;51.894;10.192;2023-05-23T02:26:15;9.65;;;8.80;;
40533;SDS011;26233;51.894;10.192;2023-05-23T02:28:43;10.07;;;9.27;;
40533;SDS011;26233;51.894;10.192;2023-05-23T02:31:10;9.48;;;8.68;;
40533;SDS011;26233;51.894;10.192;2023-05-23T02:33:37;10.73;;;9.82;;
40533;SDS011;26233;51.894;10.192;2023-05-23T02:36:04;10.88;;;9.98;;
40533;SDS011;26233;51.894;10.192;2023-05-23T02:38:33;14.57;;;13.30;;
40533;SDS011;26233;51.894;10.192;2023-05-23T02:41:00;16.17;;;14.80;;
40533;SDS011;26233;51.894;10.192;2023-05-23T02:43:27;16.25;;;14.90;;
40533;SDS011;26233;51.894;10.192;2023-05-23T02:45:54;16.25;;;14.75;;
40533;SDS011;26233;51.894;10.192;2023-05-23T02:48:22;16.00;;;14.60;;
40533;SDS011;26233;51.894;10.192;2023-05-23T02:50:49;15.05;;;13.65;;
40533;SDS011;26233;51.894;10.192;2023-05-23T02:53:16;14.50;;;13.15;;
40533;SDS011;26233;51.894;10.192;2023-05-23T02:55:44;13.45;;;12.27;;
40533;SDS011;26233;51.894;10.192;2023-05-23T02:58:11;13.65;;;12.20;;
40533;SDS011;26233;51.894;10.192;2023-05-23T03:00:39;12.23;;;11.13;;
40533;SDS011;26233;51.894;10.192;2023-05-23T03:03:08;11.10;;;10.10;;
40533;SDS011;26233;51.894;10.192;2023-05-23T03:05:35;10.77;;;9.88;;
40533;SDS011;26233;51.894;10.192;2023-05-23T03:08:02;11.52;;;10.52;;
40533;SDS011;26233;51.894;10.192;2023-05-23T03:10:29;11.63;;;10.55;;
40533;SDS011;26233;51.894;10.192;2023-05-23T03:12:57;11.57;;;10.48;;
40533;SDS011;26233;51.894;10.192;2023-05-23T03:15:24;10.65;;;9.65;;
40533;SDS011;26233;51.894;10.192;2023-05-23T03:17:51;10.15;;;9.27;;
40533;SDS011;26233;51.894;10.192;2023-05-23T03:20:19;10.35;;;9.45;;
40533;SDS011;26233;51.894;10.192;2023-05-23T03:22:46;9.55;;;8.65;;
40533;SDS011;26233;51.894;10.192;2023-05-23T03:25:14;8.98;;;8.18;;
40533;SDS011;26233;51.894;10.192;2023-05-23T03:27:41;9.40;;;8.50;;
40533;SDS011;26233;51.894;10.192;2023-05-23T03:30:12;9.50;;;8.70;;
40533;SDS011;26233;51.894;10.192;2023-05-23T03:32:39;9.02;;;8.23;;
40533;SDS011;26233;51.894;10.192;2023-05-23T03:35:06;9.40;;;8.60;;
40533;SDS011;26233;51.894;10.192;2023-05-23T03:37:35;8.85;;;8.15;;
40533;SDS011;26233;51.894;10.192;2023-05-23T03:40:02;9.07;;;8.25;;
40533;SDS011;26233;51.894;10.192;2023-05-23T03:42:32;9.10;;;8.30;;
40533;SDS011;26233;51.894;10.192;2023-05-23T03:44:59;8.95;;;8.20;;
40533;SDS011;26233;51.894;10.192;2023-05-23T03:47:27;8.80;;;8.00;;
40533;SDS011;26233;51.894;10.192;2023-05-23T03:49:54;9.15;;;8.35;;
40533;SDS011;26233;51.894;10.192;2023-05-23T03:52:21;8.85;;;8.15;;
40533;SDS011;26233;51.894;10.192;2023-05-23T03:54:48;9.05;;;8.25;;
40533;SDS011;26233;51.894;10.192;2023-05-23T03:57:16;8.57;;;7.88;;
40533;SDS011;26233;51.894;10.192;2023-05-23T03:59:43;9.10;;;8.30;;
40533;SDS011;26233;51.894;10.192;2023-05-23T04:02:09;8.82;;;8.13;;
40533;SDS011;26233;51.894;10.192;2023-05-23T04:04:38;9.57;;;8.77;;
40533;SDS011;26233;51.894;10.192;2023-05-23T04:07:05;9.15;;;8.35;;
40533;SDS011;26233;51.894;10.192;2023-05-23T04:09:33;8.98;;;8.23;;
40533;SDS011;26233;51.894;10.192;2023-05-23T04:12:00;8.77;;;8.07;;
40533;SDS011;26233;51.894;10.192;2023-05-23T04:14:27;8.35;;;7.65;;
40533;SDS011;26233;51.894;10.192;2023-05-23T04:16:56;8.00;;;7.35;;
40533;SDS011;26233;51.894;10.192;2023-05-23T04:19:25;9.07;;;8.23;;
40533;SDS011;26233;51.894;10.192;2023-05-23T04:21:53;8.77;;;8.07;;
40533;SDS011;26233;51.894;10.192;2023-05-23T04:24:20;8.43;;;7.72;;
40533;SDS011;26233;51.894;10.192;2023-05-23T04:26:47;8.38;;;7.68;;
40533;SDS011;26233;51.894;10.192;2023-05-23T04:29:14;9.43;;;8.52;;
40533;SDS011;26233;51.894;10.192;2023-05-23T04:31:41;8.80;;;8.00;;
40533;SDS011;26233;51.894;10.192;2023-05-23T04:34:09;8.52;;;7.80;;
40533;SDS011;26233;51.894;10.192;2023-05-23T04:36:36;9.85;;;8.95;;
40533;SDS011;26233;51.894;10.192;2023-05-23T04:39:05;8.73;;;8.02;;
40533;SDS011;26233;51.894;10.192;2023-05-23T04:41:33;8.52;;;7.82;;
40533;SDS011;26233;51.894;10.192;2023-05-23T04:44:00;8.65;;;7.93;;
40533;SDS011;26233;51.894;10.192;2023-05-23T04:46:27;8.15;;;7.45;;
40533;SDS011;26233;51.894;10.192;2023-05-23T04:48:54;8.73;;;7.93;;
40533;SDS011;26233;51.894;10.192;2023-05-23T04:51:22;8.70;;;8.00;;
40533;SDS011;26233;51.894;10.192;2023-05-23T04:53:49;8.52;;;7.82;;
40533;SDS011;26233;51.894;10.192;2023-05-23T04:56:18;8.82;;;8.02;;
40533;SDS011;26233;51.894;10.192;2023-05-23T04:58:46;8.30;;;7.60;;
40533;SDS011;26233;51.894;10.192;2023-05-23T05:01:15;9.23;;;8.20;;
40533;SDS011;26233;51.894;10.192;2023-05-23T05:03:42;8.27;;;7.57;;
40533;SDS011;26233;51.894;10.192;2023-05-23T05:06:10;8.75;;;8.05;;
40533;SDS011;26233;51.894;10.192;2023-05-23T05:08:38;8.32;;;7.55;;
40533;SDS011;26233;51.894;10.192;2023-05-23T05:11:05;8.25;;;7.45;;
40533;SDS011;26233;51.894;10.192;2023-05-23T05:13:34;7.28;;;6.68;;
40533;SDS011;26233;51.894;10.192;2023-05-23T05:16:01;8.10;;;7.40;;
40533;SDS011;26233;51.894;10.192;2023-05-23T05:18:28;8.10;;;7.40;;
40533;SDS011;26233;51.894;10.192;2023-05-23T05:20:56;8.13;;;7.43;;
40533;SDS011;26233;51.894;10.192;2023-05-23T05:23:24;8.13;;;7.43;;
40533;SDS011;26233;51.894;10.192;2023-05-23T05:25:52;8.20;;;7.40;;
40533;SDS011;26233;51.894;10.192;2023-05-23T05:28:22;7.85;;;7.22;;
40533;SDS011;26233;51.894;10.192;2023-05-23T05:30:50;8.63;;;7.82;;
40533;SDS011;26233;51.894;10.192;2023-05-23T05:33:18;9.23;;;8.32;;
40533;SDS011;26233;51.894;10.192;2023-05-23T05:35:47;8.18;;;7.47;;
40533;SDS011;26233;51.894;10.192;2023-05-23T05:38:15;8.00;;;7.28;;
40533;SDS011;26233;51.894;10.192;2023-05-23T05:40:42;7.90;;;7.30;;
40533;SDS011;26233;51.894;10.192;2023-05-23T05:43:09;7.68;;;6.97;;
40533;SDS011;26233;51.894;10.192;2023-05-23T05:45:36;8.43;;;7.72;;
40533;SDS011;26233;51.894;10.192;2023-05-23T05:48:05;8.18;;;7.50;;
40533;SDS011;26233;51.894;10.192;2023-05-23T05:50:32;7.03;;;6.43;;
40533;SDS011;26233;51.894;10.192;2023-05-23T05:52:59;7.32;;;6.72;;
40533;SDS011;26233;51.894;10.192;2023-05-23T05:55:27;7.45;;;6.85;;
40533;SDS011;26233;51.894;10.192;2023-05-23T05:57:54;7.22;;;6.63;;
40533;SDS011;26233;51.894;10.192;2023-05-23T06:00:21;6.75;;;6.25;;
40533;SDS011;26233;51.894;10.192;2023-05-23T06:02:49;6.75;;;6.25;;
40533;SDS011;26233;51.894;10.192;2023-05-23T06:05:17;6.63;;;6.03;;
40533;SDS011;26233;51.894;10.192;2023-05-23T06:07:46;6.93;;;5.47;;
40533;SDS011;26233;51.894;10.192;2023-05-23T06:10:15;5.57;;;5.13;;
40533;SDS011;26233;51.894;10.192;2023-05-23T06:12:45;5.68;;;5.28;;
40533;SDS011;26233;51.894;10.192;2023-05-23T06:15:12;5.75;;;5.25;;
40533;SDS011;26233;51.894;10.192;2023-05-23T06:17:40;5.18;;;4.72;;
40533;SDS011;26233;51.894;10.192;2023-05-23T06:20:09;4.80;;;4.40;;
40533;SDS011;26233;51.894;10.192;2023-05-23T06:22:38;4.25;;;3.85;;
40533;SDS011;26233;51.894;10.192;2023-05-23T06:25:06;4.43;;;4.03;;
40533;SDS011;26233;51.894;10.192;2023-05-23T06:27:33;4.13;;;3.72;;
40533;SDS011;26233;51.894;10.192;2023-05-23T06:30:02;4.18;;;3.85;;
40533;SDS011;26233;51.894;10.192;2023-05-23T06:32:29;4.20;;;3.70;;
40533;SDS011;26233;51.894;10.192;2023-05-23T06:34:56;4.35;;;3.95;;
40533;SDS011;26233;51.894;10.192;2023-05-23T06:37:23;4.22;;;3.92;;
40533;SDS011;26233;51.894;10.192;2023-05-23T06:39:52;3.92;;;3.58;;
40533;SDS011;26233;51.894;10.192;2023-05-23T06:42:19;4.45;;;4.05;;
40533;SDS011;26233;51.894;10.192;2023-05-23T06:44:46;4.43;;;4.03;;
40533;SDS011;26233;51.894;10.192;2023-05-23T06:47:13;4.07;;;3.78;;
40533;SDS011;26233;51.894;10.192;2023-05-23T06:49:40;4.10;;;3.80;;
40533;SDS011;26233;51.894;10.192;2023-05-23T06:52:07;4.05;;;3.65;;
40533;SDS011;26233;51.894;10.192;2023-05-23T06:54:34;3.75;;;3.45;;
40533;SDS011;26233;51.894;10.192;2023-05-23T06:57:03;3.83;;;3.53;;
40533;SDS011;26233;51.894;10.192;2023-05-23T06:59:30;3.50;;;3.20;;
40533;SDS011;26233;51.894;10.192;2023-05-23T07:01:57;3.40;;;3.15;;
40533;SDS011;26233;51.894;10.192;2023-05-23T07:04:24;3.42;;;3.13;;
40533;SDS011;26233;51.894;10.192;2023-05-23T07:06:52;3.85;;;3.38;;
40533;SDS011;26233;51.894;10.192;2023-05-23T07:09:19;3.60;;;3.30;;
40533;SDS011;26233;51.894;10.192;2023-05-23T07:11:46;3.45;;;3.15;;
40533;SDS011;26233;51.894;10.192;2023-05-23T07:14:15;3.22;;;3.03;;
40533;SDS011;26233;51.894;10.192;2023-05-23T07:16:43;2.95;;;2.75;;
40533;SDS011;26233;51.894;10.192;2023-05-23T07:19:10;3.33;;;2.45;;
40533;SDS011;26233;51.894;10.192;2023-05-23T07:21:37;3.40;;;3.10;;
40533;SDS011;26233;51.894;10.192;2023-05-23T07:24:04;3.35;;;3.15;;
40533;SDS011;26233;51.894;10.192;2023-05-23T07:26:31;2.90;;;2.70;;
40533;SDS011;26233;51.894;10.192;2023-05-23T07:28:58;3.00;;;2.80;;
40533;SDS011;26233;51.894;10.192;2023-05-23T07:31:27;2.83;;;2.63;;
40533;SDS011;26233;51.894;10.192;2023-05-23T07:33:56;3.08;;;2.50;;
40533;SDS011;26233;51.894;10.192;2023-05-23T07:36:23;2.63;;;2.42;;
40533;SDS011;26233;51.894;10.192;2023-05-23T07:38:50;2.95;;;2.65;;
40533;SDS011;26233;51.894;10.192;2023-05-23T07:41:17;2.65;;;2.45;;
40533;SDS011;26233;51.894;10.192;2023-05-23T07:43:44;2.75;;;2.55;;
40533;SDS011;26233;51.894;10.192;2023-05-23T07:46:11;2.63;;;2.42;;
40533;SDS011;26233;51.894;10.192;2023-05-23T07:48:39;2.95;;;2.75;;
40533;SDS011;26233;51.894;10.192;2023-05-23T07:51:06;2.72;;;2.53;;
40533;SDS011;26233;51.894;10.192;2023-05-23T07:53:34;2.60;;;2.40;;
40533;SDS011;26233;51.894;10.192;2023-05-23T07:56:03;2.72;;;2.53;;
40533;SDS011;26233;51.894;10.192;2023-05-23T07:58:31;2.40;;;2.20;;
40533;SDS011;26233;51.894;10.192;2023-05-23T08:00:58;2.60;;;2.38;;
40533;SDS011;26233;51.894;10.192;2023-05-23T08:03:25;2.53;;;2.33;;
40533;SDS011;26233;51.894;10.192;2023-05-23T08:05:53;2.38;;;2.17;;
40533;SDS011;26233;51.894;10.192;2023-05-23T08:08:21;2.10;;;2.00;;
40533;SDS011;26233;51.894;10.192;2023-05-23T08:10:48;2.28;;;1.90;;
40533;SDS011;26233;51.894;10.192;2023-05-23T08:13:15;2.47;;;2.28;;
40533;SDS011;26233;51.894;10.192;2023-05-23T08:15:42;1.90;;;1.80;;
40533;SDS011;26233;51.894;10.192;2023-05-23T08:18:09;1.73;;;1.63;;
40533;SDS011;26233;51.894;10.192;2023-05-23T08:20:36;1.73;;;1.63;;
40533;SDS011;26233;51.894;10.192;2023-05-23T08:23:05;1.70;;;1.60;;
40533;SDS011;26233;51.894;10.192;2023-05-23T08:25:32;1.70;;;1.60;;
40533;SDS011;26233;51.894;10.192;2023-05-23T08:27:59;1.45;;;1.35;;
40533;SDS011;26233;51.894;10.192;2023-05-23T08:30:29;1.60;;;1.50;;
40533;SDS011;26233;51.894;10.192;2023-05-23T08:32:57;1.30;;;1.20;;
40533;SDS011;26233;51.894;10.192;2023-05-23T08:35:28;1.65;;;1.55;;
40533;SDS011;26233;51.894;10.192;2023-05-23T08:37:59;1.90;;;1.80;;
40533;SDS011;26233;51.894;10.192;2023-05-23T08:40:27;2.75;;;2.20;;
40533;SDS011;26233;51.894;10.192;2023-05-23T08:42:57;1.90;;;1.80;;
40533;SDS011;26233;51.894;10.192;2023-05-23T08:45:24;1.75;;;1.65;;
40533;SDS011;26233;51.894;10.192;2023-05-23T08:47:54;2.22;;;2.00;;
40533;SDS011;26233;51.894;10.192;2023-05-23T08:50:25;2.10;;;1.90;;
40533;SDS011;26233;51.894;10.192;2023-05-23T08:52:55;1.90;;;1.80;;
40533;SDS011;26233;51.894;10.192;2023-05-23T08:55:24;2.90;;;2.05;;
40533;SDS011;26233;51.894;10.192;2023-05-23T08:57:56;1.80;;;1.70;;
40533;SDS011;26233;51.894;10.192;2023-05-23T09:00:24;1.80;;;1.70;;
40533;SDS011;26233;51.894;10.192;2023-05-23T09:02:53;1.90;;;1.80;;
40533;SDS011;26233;51.894;10.192;2023-05-23T09:05:20;1.90;;;1.80;;
40533;SDS011;26233;51.894;10.192;2023-05-23T09:07:48;2.00;;;1.90;;
40533;SDS011;26233;51.894;10.192;2023-05-23T09:10:15;1.77;;;1.67;;
40533;SDS011;26233;51.894;10.192;2023-05-23T09:12:47;2.08;;;1.90;;
40533;SDS011;26233;51.894;10.192;2023-05-23T09:15:14;2.10;;;1.85;;
40533;SDS011;26233;51.894;10.192;2023-05-23T09:17:42;1.73;;;1.63;;
40533;SDS011;26233;51.894;10.192;2023-05-23T09:20:11;1.80;;;1.70;;
40533;SDS011;26233;51.894;10.192;2023-05-23T09:22:40;1.48;;;1.38;;
40533;SDS011;26233;51.894;10.192;2023-05-23T09:25:11;1.70;;;1.60;;
40533;SDS011;26233;51.894;10.192;2023-05-23T09:27:38;2.10;;;2.00;;
40533;SDS011;26233;51.894;10.192;2023-05-23T09:30:07;2.75;;;1.90;;
40533;SDS011;26233;51.894;10.192;2023-05-23T09:32:36;2.30;;;2.10;;
40533;SDS011;26233;51.894;10.192;2023-05-23T09:35:05;2.00;;;1.90;;
40533;SDS011;26233;51.894;10.192;2023-05-23T09:37:36;2.40;;;2.20;;
40533;SDS011;26233;51.894;10.192;2023-05-23T09:40:07;2.40;;;2.20;;
40533;SDS011;26233;51.894;10.192;2023-05-23T09:42:40;2.28;;;2.17;;
40533;SDS011;26233;51.894;10.192;2023-05-23T09:45:10;1.88;;;1.77;;
40533;SDS011;26233;51.894;10.192;2023-05-23T09:47:37;2.22;;;2.13;;
40533;SDS011;26233;51.894;10.192;2023-05-23T09:50:05;2.38;;;2.17;;
40533;SDS011;26233;51.894;10.192;2023-05-23T09:52:35;2.20;;;2.00;;
40533;SDS011;26233;51.894;10.192;2023-05-23T09:55:04;2.00;;;1.80;;
40533;SDS011;26233;51.894;10.192;2023-05-23T09:57:33;1.80;;;1.70;;
40533;SDS011;26233;51.894;10.192;2023-05-23T10:00:02;2.10;;;2.00;;
40533;SDS011;26233;51.894;10.192;2023-05-23T10:02:51;2.30;;;2.10;;
40533;SDS011;26233;51.894;10.192;2023-05-23T10:05:26;2.88;;;2.67;;
40533;SDS011;26233;51.894;10.192;2023-05-23T10:08:00;2.67;;;2.47;;
40533;SDS011;26233;51.894;10.192;2023-05-23T10:10:31;2.60;;;2.40;;
40533;SDS011;26233;51.894;10.192;2023-05-23T10:13:00;3.42;;;3.13;;
40533;SDS011;26233;51.894;10.192;2023-05-23T10:15:30;3.22;;;2.75;;
40533;SDS011;26233;51.894;10.192;2023-05-23T10:18:06;3.03;;;2.83;;
40533;SDS011;26233;51.894;10.192;2023-05-23T10:20:39;3.20;;;2.90;;
40533;SDS011;26233;51.894;10.192;2023-05-23T10:23:09;2.67;;;2.40;;
40533;SDS011;26233;51.894;10.192;2023-05-23T10:25:40;2.53;;;2.33;;
40533;SDS011;26233;51.894;10.192;2023-05-23T10:28:09;2.00;;;1.88;;
40533;SDS011;26233;51.894;10.192;2023-05-23T10:30:37;1.77;;;1.67;;
40533;SDS011;26233;51.894;10.192;2023-05-23T10:33:06;1.98;;;1.77;;
40533;SDS011;26233;51.894;10.192;2023-05-23T10:35:40;1.70;;;1.60;;
40533;SDS011;26233;51.894;10.192;2023-05-23T10:38:25;2.42;;;2.03;;
40533;SDS011;26233;51.894;10.192;2023-05-23T10:41:01;2.00;;;1.80;;
40533;SDS011;26233;51.894;10.192;2023-05-23T10:43:39;2.33;;;2.13;;
40533;SDS011;26233;51.894;10.192;2023-05-23T10:46:11;2.42;;;2.22;;
40533;SDS011;26233;51.894;10.192;2023-05-23T10:48:41;2.30;;;2.10;;
40533;SDS011;26233;51.894;10.192;2023-05-23T10:51:10;2.40;;;2.20;;
40533;SDS011;26233;51.894;10.192;2023-05-23T10:53:39;2.53;;;2.08;;
40533;SDS011;26233;51.894;10.192;2023-05-23T10:56:08;2.20;;;2.00;;
40533;SDS011;26233;51.894;10.192;2023-05-23T10:58:37;2.22;;;2.03;;
40533;SDS011;26233;51.894;10.192;2023-05-23T11:01:05;2.63;;;2.00;;
40533;SDS011;26233;51.894;10.192;2023-05-23T11:03:34;2.17;;;1.75;;
40533;SDS011;26233;51.894;10.192;2023-05-23T11:06:05;1.70;;;1.60;;
40533;SDS011;26233;51.894;10.192;2023-05-23T11:08:36;1.98;;;1.50;;
40533;SDS011;26233;51.894;10.192;2023-05-23T11:11:06;1.73;;;1.30;;
40533;SDS011;26233;51.894;10.192;2023-05-23T11:13:54;1.27;;;1.17;;
40533;SDS011;26233;51.894;10.192;2023-05-23T11:16:25;1.30;;;1.20;;
40533;SDS011;26233;51.894;10.192;2023-05-23T11:21:53;2.22;;;1.20;;
40533;SDS011;26233;51.894;10.192;2023-05-23T11:24:23;2.08;;;1.27;;
40533;SDS011;26233;51.894;10.192;2023-05-23T11:27:14;1.00;;;0.95;;
40533;SDS011;26233;51.894;10.192;2023-05-23T11:29:44;1.45;;;1.27;;
40533;SDS011;26233;51.894;10.192;2023-05-23T11:32:22;1.25;;;1.15;;
40533;SDS011;26233;51.894;10.192;2023-05-23T11:34:50;1.50;;;1.40;;
40533;SDS011;26233;51.894;10.192;2023-05-23T11:37:19;2.10;;;1.83;;
40533;SDS011;26233;51.894;10.192;2023-05-23T11:39:47;2.10;;;1.90;;
40533;SDS011;26233;51.894;10.192;2023-05-23T11:42:17;2.00;;;1.80;;
40533;SDS011;26233;51.894;10.192;2023-05-23T11:44:47;2.17;;;1.98;;
40533;SDS011;26233;51.894;10.192;2023-05-23T11:47:14;2.22;;;2.03;;
40533;SDS011;26233;51.894;10.192;2023-05-23T11:49:43;2.50;;;2.00;;
40533;SDS011;26233;51.894;10.192;2023-05-23T11:52:11;1.70;;;1.60;;
40533;SDS011;26233;51.894;10.192;2023-05-23T11:54:41;2.17;;;1.83;;
40533;SDS011;26233;51.894;10.192;2023-05-23T11:57:08;2.45;;;2.00;;
40533;SDS011;26233;51.894;10.192;2023-05-23T11:59:36;3.60;;;2.35;;
40533;SDS011;26233;51.894;10.192;2023-05-23T12:02:04;2.95;;;2.67;;
40533;SDS011;26233;51.894;10.192;2023-05-23T12:04:33;3.50;;;3.20;;
40533;SDS011;26233;51.894;10.192;2023-05-23T12:07:03;3.40;;;3.10;;
40533;SDS011;26233;51.894;10.192;2023-05-23T12:09:33;3.50;;;3.20;;
40533;SDS011;26233;51.894;10.192;2023-05-23T12:12:08;3.92;;;3.28;;
40533;SDS011;26233;51.894;10.192;2023-05-23T12:14:36;4.53;;;3.35;;
40533;SDS011;26233;51.894;10.192;2023-05-23T12:17:08;4.22;;;3.67;;
40533;SDS011;26233;51.894;10.192;2023-05-23T12:19:38;5.38;;;4.35;;
40533;SDS011;26233;51.894;10.192;2023-05-23T12:22:05;4.75;;;3.65;;
40533;SDS011;26233;51.894;10.192;2023-05-23T12:24:33;5.43;;;3.80;;
40533;SDS011;26233;51.894;10.192;2023-05-23T12:27:02;4.35;;;3.95;;
40533;SDS011;26233;51.894;10.192;2023-05-23T12:29:29;4.25;;;3.88;;
40533;SDS011;26233;51.894;10.192;2023-05-23T12:31:58;7.28;;;4.00;;
40533;SDS011;26233;51.894;10.192;2023-05-23T12:34:27;4.45;;;4.05;;
40533;SDS011;26233;51.894;10.192;2023-05-23T12:36:54;4.13;;;3.72;;
40533;SDS011;26233;51.894;10.192;2023-05-23T12:39:26;4.80;;;3.70;;
40533;SDS011;26233;51.894;10.192;2023-05-23T12:41:54;4.22;;;3.83;;
40533;SDS011;26233;51.894;10.192;2023-05-23T12:44:25;5.20;;;3.67;;
40533;SDS011;26233;51.894;10.192;2023-05-23T12:46:55;5.38;;;4.22;;
40533;SDS011;26233;51.894;10.192;2023-05-23T12:49:23;6.50;;;4.53;;
40533;SDS011;26233;51.894;10.192;2023-05-23T12:51:50;5.53;;;4.05;;
40533;SDS011;26233;51.894;10.192;2023-05-23T12:54:17;4.85;;;3.88;;
40533;SDS011;26233;51.894;10.192;2023-05-23T12:56:44;4.40;;;3.90;;
40533;SDS011;26233;51.894;10.192;2023-05-23T12:59:11;5.85;;;3.80;;
40533;SDS011;26233;51.894;10.192;2023-05-23T13:01:40;5.68;;;4.63;;
40533;SDS011;26233;51.894;10.192;2023-05-23T13:04:07;4.97;;;4.40;;
40533;SDS011;26233;51.894;10.192;2023-05-23T13:06:34;5.10;;;4.35;;
40533;SDS011;26233;51.894;10.192;2023-05-23T13:09:03;4.43;;;4.03;;
40533;SDS011;26233;51.894;10.192;2023-05-23T13:11:30;4.57;;;4.10;;
40533;SDS011;26233;51.894;10.192;2023-05-23T13:13:57;4.85;;;4.03;;
40533;SDS011;26233;51.894;10.192;2023-05-23T13:16:24;4.97;;;4.32;;
40533;SDS011;26233;51.894;10.192;2023-05-23T13:18:53;5.80;;;4.38;;
40533;SDS011;26233;51.894;10.192;2023-05-23T13:21:20;5.10;;;4.60;;
40533;SDS011;26233;51.894;10.192;2023-05-23T13:23:47;6.07;;;4.47;;
40533;SDS011;26233;51.894;10.192;2023-05-23T13:26:17;5.25;;;3.92;;
40533;SDS011;26233;51.894;10.192;2023-05-23T13:28:44;6.50;;;4.43;;
40533;SDS011;26233;51.894;10.192;2023-05-23T13:31:11;5.72;;;4.07;;
40533;SDS011;26233;51.894;10.192;2023-05-23T13:33:38;6.07;;;4.22;;
40533;SDS011;26233;51.894;10.192;2023-05-23T13:36:07;4.93;;;3.97;;
40533;SDS011;26233;51.894;10.192;2023-05-23T13:38:34;5.78;;;4.28;;
40533;SDS011;26233;51.894;10.192;2023-05-23T13:41:02;5.68;;;4.45;;
40533;SDS011;26233;51.894;10.192;2023-05-23T13:43:29;6.93;;;4.10;;
40533;SDS011;26233;51.894;10.192;2023-05-23T13:45:56;5.07;;;4.03;;
40533;SDS011;26233;51.894;10.192;2023-05-23T13:48:25;5.25;;;3.85;;
40533;SDS011;26233;51.894;10.192;2023-05-23T13:50:52;5.65;;;3.80;;
40533;SDS011;26233;51.894;10.192;2023-05-23T13:53:21;5.30;;;3.35;;
40533;SDS011;26233;51.894;10.192;2023-05-23T13:55:48;10.90;;;3.92;;
40533;SDS011;26233;51.894;10.192;2023-05-23T13:58:15;5.03;;;3.25;;
40533;SDS011;26233;51.894;10.192;2023-05-23T14:00:42;5.53;;;3.60;;
40533;SDS011;26233;51.894;10.192;2023-05-23T14:03:10;5.10;;;3.78;;
40533;SDS011;26233;51.894;10.192;2023-05-23T14:05:37;6.15;;;3.50;;
40533;SDS011;26233;51.894;10.192;2023-05-23T14:08:04;6.22;;;3.85;;
40533;SDS011;26233;51.894;10.192;2023-05-23T14:10:33;6.18;;;3.65;;
40533;SDS011;26233;51.894;10.192;2023-05-23T14:13:00;6.97;;;3.70;;
40533;SDS011;26233;51.894;10.192;2023-05-23T14:15:27;5.50;;;3.45;;
40533;SDS011;26233;51.894;10.192;2023-05-23T14:17:54;6.20;;;3.70;;
40533;SDS011;26233;51.894;10.192;2023-05-23T14:20:21;4.10;;;3.50;;
40533;SDS011;26233;51.894;10.192;2023-05-23T14:22:48;5.00;;;3.45;;
40533;SDS011;26233;51.894;10.192;2023-05-23T14:25:16;6.03;;;3.60;;
40533;SDS011;26233;51.894;10.192;2023-05-23T14:27:45;5.88;;;3.22;;
40533;SDS011;26233;51.894;10.192;2023-05-23T14:30:12;4.95;;;3.47;;
40533;SDS011;26233;51.894;10.192;2023-05-23T14:32:40;6.68;;;3.28;;
40533;SDS011;26233;51.894;10.192;2023-05-23T14:35:08;5.20;;;3.35;;
40533;SDS011;26233;51.894;10.192;2023-05-23T14:37:36;6.20;;;3.40;;
40533;SDS011;26233;51.894;10.192;2023-05-23T14:40:04;6.35;;;3.65;;
40533;SDS011;26233;51.894;10.192;2023-05-23T14:42:34;5.53;;;3.35;;
40533;SDS011;26233;51.894;10.192;2023-05-23T14:45:03;5.40;;;3.45;;